sensor_id;sensor_type;location;lat;lon;timestamp;pressure;altitude;pressure_sealevel;temperature;humidity
28008;BME280;15333;50.010;20.020;2023-04-01T00:01:30;97038.25;;;9.99;72.82
28008;BME280;15333;50.010;20.020;2023-04-01T00:04:31;97038.56;;;9.96;73.08
28008;BME280;15333;50.010;20.020;2023-04-01T00:07:32;97042.06;;;9.96;73.42
28008;BME280;15333;50.010;20.020;2023-04-01T00:10:34;97045.59;;;9.97;73.30
28008;BME280;15333;50.010;20.020;2023-04-01T00:13:34;97037.41;;;9.98;73.13
28008;BME280;15333;50.010;20.020;2023-04-01T00:16:36;97041.56;;;9.93;73.86
28008;BME280;15333;50.010;20.020;2023-04-01T00:19:37;97034.16;;;9.87;73.97
28008;BME280;15333;50.010;20.020;2023-04-01T00:22:38;97041.16;;;9.88;74.53
28008;BME280;15333;50.010;20.020;2023-04-01T00:25:39;97012.72;;;9.78;74.81
28008;BME280;15333;50.010;20.020;2023-04-01T00:28:40;97013.34;;;9.72;75.31
28008;BME280;15333;50.010;20.020;2023-04-01T00:31:41;97012.66;;;9.70;75.54
28008;BME280;15333;50.010;20.020;2023-04-01T00:34:42;97008.91;;;9.63;76.24
28008;BME280;15333;50.010;20.020;2023-04-01T00:37:44;97008.38;;;9.60;76.47
28008;BME280;15333;50.010;20.020;2023-04-01T00:40:46;97012.22;;;9.57;76.88
28008;BME280;15333;50.010;20.020;2023-04-01T00:43:49;97008.84;;;9.55;77.14
28008;BME280;15333;50.010;20.020;2023-04-01T00:46:51;97007.16;;;9.54;77.60
28008;BME280;15333;50.010;20.020;2023-04-01T00:49:53;97005.25;;;9.47;77.92
28008;BME280;15333;50.010;20.020;2023-04-01T00:52:56;97007.78;;;9.48;77.78
28008;BME280;15333;50.010;20.020;2023-04-01T00:56:03;97007.47;;;9.51;78.26
28008;BME280;15333;50.010;20.020;2023-04-01T00:59:15;97003.88;;;9.42;78.84
28008;BME280;15333;50.010;20.020;2023-04-01T01:02:16;97005.03;;;9.40;78.93
28008;BME280;15333;50.010;20.020;2023-04-01T01:05:26;97017.16;;;9.34;79.26
28008;BME280;15333;50.010;20.020;2023-04-01T01:12:13;97005.63;;;9.34;79.71
28008;BME280;15333;50.010;20.020;2023-04-01T01:18:45;97014.34;;;9.36;79.72
28008;BME280;15333;50.010;20.020;2023-04-01T01:25:29;97022.13;;;9.47;79.38
28008;BME280;15333;50.010;20.020;2023-04-01T01:32:06;97031.19;;;9.54;79.27
28008;BME280;15333;50.010;20.020;2023-04-01T01:35:26;97021.06;;;9.58;79.08
28008;BME280;15333;50.010;20.020;2023-04-01T01:38:34;97010.81;;;9.53;79.03
28008;BME280;15333;50.010;20.020;2023-04-01T01:41:39;97021.22;;;9.56;79.33
28008;BME280;15333;50.010;20.020;2023-04-01T01:44:44;97025.47;;;9.49;79.88
28008;BME280;15333;50.010;20.020;2023-04-01T01:47:48;97032.19;;;9.53;79.93
28008;BME280;15333;50.010;20.020;2023-04-01T01:50:51;97032.50;;;9.50;79.62
28008;BME280;15333;50.010;20.020;2023-04-01T01:53:52;97031.88;;;9.56;79.56
28008;BME280;15333;50.010;20.020;2023-04-01T01:57:06;97038.91;;;9.57;79.81
28008;BME280;15333;50.010;20.020;2023-04-01T02:00:10;97035.69;;;9.54;79.82
28008;BME280;15333;50.010;20.020;2023-04-01T02:03:19;97034.56;;;9.56;79.59
28008;BME280;15333;50.010;20.020;2023-04-01T02:06:27;97041.13;;;9.62;79.35
28008;BME280;15333;50.010;20.020;2023-04-01T02:09:30;97035.78;;;9.62;79.17
28008;BME280;15333;50.010;20.020;2023-04-01T02:12:33;97036.75;;;9.61;79.51
28008;BME280;15333;50.010;20.020;2023-04-01T02:15:40;97037.53;;;9.53;79.71
28008;BME280;15333;50.010;20.020;2023-04-01T02:18:44;97042.34;;;9.50;80.13
28008;BME280;15333;50.010;20.020;2023-04-01T02:21:46;97045.53;;;9.53;80.33
28008;BME280;15333;50.010;20.020;2023-04-01T02:24:49;97045.00;;;9.50;80.48
28008;BME280;15333;50.010;20.020;2023-04-01T02:27:51;97047.03;;;9.38;80.93
28008;BME280;15333;50.010;20.020;2023-04-01T02:30:53;97050.31;;;9.32;80.94
28008;BME280;15333;50.010;20.020;2023-04-01T02:33:54;97038.56;;;9.25;81.75
28008;BME280;15333;50.010;20.020;2023-04-01T02:36:55;97045.91;;;9.23;82.24
28008;BME280;15333;50.010;20.020;2023-04-01T02:40:02;97051.63;;;9.28;81.72
28008;BME280;15333;50.010;20.020;2023-04-01T02:43:04;97057.56;;;9.22;81.85
28008;BME280;15333;50.010;20.020;2023-04-01T02:46:05;97061.22;;;9.21;81.60
28008;BME280;15333;50.010;20.020;2023-04-01T02:49:06;97063.28;;;9.27;81.34
28008;BME280;15333;50.010;20.020;2023-04-01T02:52:07;97057.66;;;9.30;81.28
28008;BME280;15333;50.010;20.020;2023-04-01T02:55:08;97063.91;;;9.21;81.65
28008;BME280;15333;50.010;20.020;2023-04-01T02:58:09;97063.66;;;9.32;81.11
28008;BME280;15333;50.010;20.020;2023-04-01T03:01:11;97066.41;;;9.22;81.69
28008;BME280;15333;50.010;20.020;2023-04-01T03:04:12;97064.59;;;9.23;81.83
28008;BME280;15333;50.010;20.020;2023-04-01T03:07:12;97053.22;;;9.21;81.77
28008;BME280;15333;50.010;20.020;2023-04-01T03:10:14;97052.38;;;9.20;82.13
28008;BME280;15333;50.010;20.020;2023-04-01T03:13:15;97053.69;;;9.16;82.52
28008;BME280;15333;50.010;20.020;2023-04-01T03:16:18;97063.34;;;9.17;82.89
28008;BME280;15333;50.010;20.020;2023-04-01T03:19:19;97057.72;;;9.20;81.93
28008;BME280;15333;50.010;20.020;2023-04-01T03:22:20;97064.50;;;9.15;82.72
28008;BME280;15333;50.010;20.020;2023-04-01T03:25:21;97056.69;;;9.03;83.56
28008;BME280;15333;50.010;20.020;2023-04-01T03:28:22;97053.63;;;8.98;84.29
28008;BME280;15333;50.010;20.020;2023-04-01T03:31:23;97054.41;;;9.09;83.79
28008;BME280;15333;50.010;20.020;2023-04-01T03:34:29;97056.69;;;9.03;84.13
28008;BME280;15333;50.010;20.020;2023-04-01T03:37:30;97060.03;;;9.06;84.01
28008;BME280;15333;50.010;20.020;2023-04-01T03:40:31;97063.69;;;9.04;84.21
28008;BME280;15333;50.010;20.020;2023-04-01T03:43:34;97056.50;;;9.15;83.68
28008;BME280;15333;50.010;20.020;2023-04-01T03:46:35;97058.06;;;9.08;84.29
28008;BME280;15333;50.010;20.020;2023-04-01T03:49:36;97061.72;;;9.07;84.41
28008;BME280;15333;50.010;20.020;2023-04-01T03:52:37;97065.94;;;9.09;84.25
28008;BME280;15333;50.010;20.020;2023-04-01T03:55:38;97066.75;;;9.10;83.89
28008;BME280;15333;50.010;20.020;2023-04-01T03:58:39;97067.84;;;9.17;84.16
28008;BME280;15333;50.010;20.020;2023-04-01T04:01:42;97073.50;;;9.14;84.03
28008;BME280;15333;50.010;20.020;2023-04-01T04:04:43;97068.09;;;9.23;84.14
28008;BME280;15333;50.010;20.020;2023-04-01T04:07:44;97066.19;;;9.16;84.08
28008;BME280;15333;50.010;20.020;2023-04-01T04:10:46;97071.53;;;9.16;84.54
28008;BME280;15333;50.010;20.020;2023-04-01T04:13:47;97078.50;;;9.17;84.46
28008;BME280;15333;50.010;20.020;2023-04-01T04:16:51;97085.16;;;9.13;84.47
28008;BME280;15333;50.010;20.020;2023-04-01T04:19:51;97084.41;;;9.20;84.03
28008;BME280;15333;50.010;20.020;2023-04-01T04:22:53;97090.88;;;9.18;84.43
28008;BME280;15333;50.010;20.020;2023-04-01T04:25:55;97087.31;;;9.27;84.21
28008;BME280;15333;50.010;20.020;2023-04-01T04:28:56;97091.56;;;9.20;84.73
28008;BME280;15333;50.010;20.020;2023-04-01T04:31:56;97087.03;;;9.30;84.10
28008;BME280;15333;50.010;20.020;2023-04-01T04:34:58;97079.91;;;9.21;84.21
28008;BME280;15333;50.010;20.020;2023-04-01T04:37:59;97086.84;;;9.31;84.31
28008;BME280;15333;50.010;20.020;2023-04-01T04:41:00;97074.66;;;9.29;84.68
28008;BME280;15333;50.010;20.020;2023-04-01T04:44:01;97079.03;;;9.30;84.11
28008;BME280;15333;50.010;20.020;2023-04-01T04:47:03;97081.75;;;9.38;84.10
28008;BME280;15333;50.010;20.020;2023-04-01T04:50:04;97083.63;;;9.37;83.64
28008;BME280;15333;50.010;20.020;2023-04-01T04:53:06;97089.19;;;9.44;83.35
28008;BME280;15333;50.010;20.020;2023-04-01T04:56:09;97078.19;;;9.47;82.75
28008;BME280;15333;50.010;20.020;2023-04-01T04:59:21;97073.22;;;9.52;82.89
28008;BME280;15333;50.010;20.020;2023-04-01T05:02:30;97081.66;;;9.57;82.95
28008;BME280;15333;50.010;20.020;2023-04-01T05:05:31;97081.13;;;9.71;81.95
28008;BME280;15333;50.010;20.020;2023-04-01T05:08:33;97091.72;;;9.63;82.35
28008;BME280;15333;50.010;20.020;2023-04-01T05:11:35;97087.75;;;9.67;82.00
28008;BME280;15333;50.010;20.020;2023-04-01T05:14:35;97086.00;;;9.76;81.21
28008;BME280;15333;50.010;20.020;2023-04-01T05:17:42;97090.81;;;9.72;81.78
28008;BME280;15333;50.010;20.020;2023-04-01T05:20:52;97094.84;;;9.76;81.35
28008;BME280;15333;50.010;20.020;2023-04-01T05:23:54;97091.03;;;9.79;81.39
28008;BME280;15333;50.010;20.020;2023-04-01T05:26:55;97087.22;;;9.81;81.07
28008;BME280;15333;50.010;20.020;2023-04-01T05:29:57;97092.00;;;9.96;80.79
28008;BME280;15333;50.010;20.020;2023-04-01T05:33:16;97094.31;;;9.91;81.88
28008;BME280;15333;50.010;20.020;2023-04-01T05:36:17;97089.25;;;9.88;82.47
28008;BME280;15333;50.010;20.020;2023-04-01T05:39:18;97087.66;;;9.77;83.89
28008;BME280;15333;50.010;20.020;2023-04-01T05:42:20;97088.34;;;9.97;84.04
28008;BME280;15333;50.010;20.020;2023-04-01T05:45:21;97091.00;;;10.32;82.33
28008;BME280;15333;50.010;20.020;2023-04-01T05:48:41;97091.81;;;10.50;81.65
28008;BME280;15333;50.010;20.020;2023-04-01T05:51:42;97084.25;;;10.72;80.11
28008;BME280;15333;50.010;20.020;2023-04-01T05:54:44;97082.03;;;10.93;78.77
28008;BME280;15333;50.010;20.020;2023-04-01T05:57:45;97087.94;;;10.71;80.59
28008;BME280;15333;50.010;20.020;2023-04-01T06:00:47;97086.19;;;10.62;80.52
28008;BME280;15333;50.010;20.020;2023-04-01T06:03:50;97086.53;;;10.67;80.39
28008;BME280;15333;50.010;20.020;2023-04-01T06:06:51;97078.56;;;10.75;80.07
28008;BME280;15333;50.010;20.020;2023-04-01T06:09:52;97073.63;;;10.88;78.75
28008;BME280;15333;50.010;20.020;2023-04-01T06:13:06;97077.31;;;10.87;78.73
28008;BME280;15333;50.010;20.020;2023-04-01T06:22:51;97077.19;;;10.96;77.56
28008;BME280;15333;50.010;20.020;2023-04-01T06:36:39;97086.75;;;10.99;77.26
28008;BME280;15333;50.010;20.020;2023-04-01T06:53:39;97091.91;;;11.34;75.81
28008;BME280;15333;50.010;20.020;2023-04-01T06:57:14;97092.78;;;11.51;74.91
28008;BME280;15333;50.010;20.020;2023-04-01T07:00:24;97095.28;;;11.53;74.86
28008;BME280;15333;50.010;20.020;2023-04-01T07:03:34;97099.38;;;11.65;74.41
28008;BME280;15333;50.010;20.020;2023-04-01T07:06:45;97085.75;;;11.50;73.91
28008;BME280;15333;50.010;20.020;2023-04-01T07:09:55;97095.03;;;11.72;73.52
28008;BME280;15333;50.010;20.020;2023-04-01T07:13:14;97097.53;;;11.73;74.11
28008;BME280;15333;50.010;20.020;2023-04-01T07:16:26;97092.69;;;11.19;73.39
28008;BME280;15333;50.010;20.020;2023-04-01T07:19:39;97088.91;;;11.46;72.52
28008;BME280;15333;50.010;20.020;2023-04-01T07:22:45;97096.66;;;11.57;71.86
28008;BME280;15333;50.010;20.020;2023-04-01T07:26:18;97090.44;;;11.48;71.41
28008;BME280;15333;50.010;20.020;2023-04-01T07:29:40;97094.03;;;11.81;71.76
28008;BME280;15333;50.010;20.020;2023-04-01T07:33:00;97093.44;;;12.20;69.84
28008;BME280;15333;50.010;20.020;2023-04-01T07:59:03;97110.84;;;11.91;70.70
28008;BME280;15333;50.010;20.020;2023-04-01T08:06:00;97109.34;;;12.13;68.95
28008;BME280;15333;50.010;20.020;2023-04-01T08:09:21;97104.47;;;12.00;68.58
28008;BME280;15333;50.010;20.020;2023-04-01T08:22:51;97111.53;;;12.18;69.23
28008;BME280;15333;50.010;20.020;2023-04-01T08:29:22;97114.69;;;12.45;66.94
28008;BME280;15333;50.010;20.020;2023-04-01T08:32:37;97111.16;;;12.77;66.47
28008;BME280;15333;50.010;20.020;2023-04-01T08:36:08;97114.13;;;12.90;65.76
28008;BME280;15333;50.010;20.020;2023-04-01T08:39:32;97115.16;;;12.81;65.74
28008;BME280;15333;50.010;20.020;2023-04-01T09:06:02;97107.81;;;12.67;65.67
28008;BME280;15333;50.010;20.020;2023-04-01T09:33:48;97101.38;;;13.48;62.81
28008;BME280;15333;50.010;20.020;2023-04-01T09:37:08;97101.50;;;13.54;63.63
28008;BME280;15333;50.010;20.020;2023-04-01T09:40:40;97097.28;;;13.91;61.69
28008;BME280;15333;50.010;20.020;2023-04-01T09:48:03;97093.31;;;13.48;62.88
28008;BME280;15333;50.010;20.020;2023-04-01T10:08:43;97129.78;;;12.30;67.88
28008;BME280;15333;50.010;20.020;2023-04-01T10:29:15;97146.56;;;11.58;73.14
28008;BME280;15333;50.010;20.020;2023-04-01T10:32:37;97142.63;;;11.78;72.61
28008;BME280;15333;50.010;20.020;2023-04-01T10:36:12;97157.75;;;12.03;71.61
28008;BME280;15333;50.010;20.020;2023-04-01T10:49:58;97151.75;;;12.58;69.54
28008;BME280;15333;50.010;20.020;2023-04-01T11:26:05;97148.75;;;12.69;66.39
28008;BME280;15333;50.010;20.020;2023-04-01T11:29:37;97140.69;;;12.61;66.73
28008;BME280;15333;50.010;20.020;2023-04-01T11:40:25;97139.94;;;13.16;65.65
28008;BME280;15333;50.010;20.020;2023-04-01T11:44:19;97128.38;;;13.54;64.00
28008;BME280;15333;50.010;20.020;2023-04-01T11:47:52;97117.97;;;14.13;61.08
28008;BME280;15333;50.010;20.020;2023-04-01T11:51:20;97117.06;;;14.81;59.54
28008;BME280;15333;50.010;20.020;2023-04-01T12:04:36;97143.88;;;12.24;73.35
28008;BME280;15333;50.010;20.020;2023-04-01T12:14:30;97144.38;;;12.84;72.93
28008;BME280;15333;50.010;20.020;2023-04-01T12:30:41;97142.13;;;13.59;63.65
28008;BME280;15333;50.010;20.020;2023-04-01T12:33:52;97154.47;;;13.46;65.22
28008;BME280;15333;50.010;20.020;2023-04-01T12:40:23;97150.13;;;13.37;66.07
28008;BME280;15333;50.010;20.020;2023-04-01T12:54:32;97151.13;;;13.75;63.67
28008;BME280;15333;50.010;20.020;2023-04-01T12:57:51;97165.50;;;13.59;63.99
28008;BME280;15333;50.010;20.020;2023-04-01T13:04:53;97168.31;;;13.02;66.06
28008;BME280;15333;50.010;20.020;2023-04-01T13:11:39;97170.50;;;13.15;66.71
28008;BME280;15333;50.010;20.020;2023-04-01T13:25:19;97172.94;;;13.49;67.67
28008;BME280;15333;50.010;20.020;2023-04-01T13:28:27;97171.72;;;13.51;67.96
28008;BME280;15333;50.010;20.020;2023-04-01T13:44:43;97196.97;;;12.04;72.94
28008;BME280;15333;50.010;20.020;2023-04-01T14:02:14;97205.72;;;11.64;79.44
28008;BME280;15333;50.010;20.020;2023-04-01T14:05:48;97188.84;;;11.80;78.53
28008;BME280;15333;50.010;20.020;2023-04-01T14:13:15;97186.63;;;12.18;74.82
28008;BME280;15333;50.010;20.020;2023-04-01T14:26:30;97193.69;;;12.83;71.85
28008;BME280;15333;50.010;20.020;2023-04-01T14:43:48;97202.69;;;12.18;75.84
28008;BME280;15333;50.010;20.020;2023-04-01T14:50:43;97203.34;;;12.03;77.13
28008;BME280;15333;50.010;20.020;2023-04-01T14:54:00;97205.06;;;12.12;77.14
28008;BME280;15333;50.010;20.020;2023-04-01T14:57:30;97207.38;;;11.99;78.99
28008;BME280;15333;50.010;20.020;2023-04-01T15:33:23;97225.63;;;11.62;84.55
28008;BME280;15333;50.010;20.020;2023-04-01T15:36:31;97242.38;;;11.64;84.30
28008;BME280;15333;50.010;20.020;2023-04-01T15:39:56;97245.72;;;11.66;84.68
28008;BME280;15333;50.010;20.020;2023-04-01T15:52:48;97256.84;;;10.76;97.11
28008;BME280;15333;50.010;20.020;2023-04-01T15:56:30;97262.00;;;10.69;100.00
28008;BME280;15333;50.010;20.020;2023-04-01T16:02:53;97262.38;;;10.56;100.00
28008;BME280;15333;50.010;20.020;2023-04-01T16:16:01;97276.66;;;10.30;100.00
28008;BME280;15333;50.010;20.020;2023-04-01T16:22:17;97285.44;;;10.22;100.00
28008;BME280;15333;50.010;20.020;2023-04-01T16:25:41;97291.34;;;10.16;100.00
28008;BME280;15333;50.010;20.020;2023-04-01T16:29:11;97295.59;;;10.09;100.00
28008;BME280;15333;50.010;20.020;2023-04-01T16:42:56;97303.22;;;10.04;100.00
28008;BME280;15333;50.010;20.020;2023-04-01T16:49:33;97315.00;;;9.83;100.00
28008;BME280;15333;50.010;20.020;2023-04-01T16:56:27;97321.53;;;9.71;100.00
28008;BME280;15333;50.010;20.020;2023-04-01T16:59:34;97327.88;;;9.70;100.00
28008;BME280;15333;50.010;20.020;2023-04-01T17:02:39;97334.63;;;9.65;100.00
28008;BME280;15333;50.010;20.020;2023-04-01T17:09:31;97340.13;;;9.63;100.00
28008;BME280;15333;50.010;20.020;2023-04-01T17:12:47;97343.78;;;9.53;100.00
28008;BME280;15333;50.010;20.020;2023-04-01T17:23:24;97373.53;;;9.21;100.00
28008;BME280;15333;50.010;20.020;2023-04-01T17:29:56;97376.06;;;9.13;100.00
28008;BME280;15333;50.010;20.020;2023-04-01T17:50:23;97386.28;;;8.88;100.00
28008;BME280;15333;50.010;20.020;2023-04-01T17:53:53;97395.41;;;8.95;100.00
28008;BME280;15333;50.010;20.020;2023-04-01T18:00:39;97393.75;;;8.94;100.00
28008;BME280;15333;50.010;20.020;2023-04-01T18:04:08;97398.09;;;8.95;100.00
28008;BME280;15333;50.010;20.020;2023-04-01T18:07:36;97396.84;;;8.99;100.00
28008;BME280;15333;50.010;20.020;2023-04-01T18:17:21;97409.63;;;9.06;100.00
28008;BME280;15333;50.010;20.020;2023-04-01T18:20:41;97412.69;;;9.11;100.00
28008;BME280;15333;50.010;20.020;2023-04-01T18:23:56;97414.69;;;9.09;100.00
28008;BME280;15333;50.010;20.020;2023-04-01T18:27:07;97414.81;;;9.17;100.00
28008;BME280;15333;50.010;20.020;2023-04-01T18:30:17;97419.03;;;9.10;100.00
28008;BME280;15333;50.010;20.020;2023-04-01T18:33:25;97428.16;;;8.97;100.00
28008;BME280;15333;50.010;20.020;2023-04-01T18:36:53;97440.78;;;8.95;100.00
28008;BME280;15333;50.010;20.020;2023-04-01T18:40:03;97438.13;;;8.95;100.00
28008;BME280;15333;50.010;20.020;2023-04-01T18:43:30;97434.75;;;8.93;100.00
28008;BME280;15333;50.010;20.020;2023-04-01T18:46:50;97448.50;;;8.89;100.00
28008;BME280;15333;50.010;20.020;2023-04-01T18:54:21;97449.34;;;8.89;100.00
28008;BME280;15333;50.010;20.020;2023-04-01T18:56:49;97445.97;;;8.97;100.00
28008;BME280;15333;50.010;20.020;2023-04-01T19:00:01;97445.16;;;9.06;100.00
28008;BME280;15333;50.010;20.020;2023-04-01T19:03:18;97451.91;;;9.00;100.00
28008;BME280;15333;50.010;20.020;2023-04-01T19:06:30;97451.34;;;9.07;100.00
28008;BME280;15333;50.010;20.020;2023-04-01T19:09:45;97464.00;;;9.14;100.00
28008;BME280;15333;50.010;20.020;2023-04-01T19:13:16;97459.22;;;9.08;100.00
28008;BME280;15333;50.010;20.020;2023-04-01T19:19:55;97475.22;;;8.98;100.00
28008;BME280;15333;50.010;20.020;2023-04-01T19:30:18;97486.28;;;8.84;100.00
28008;BME280;15333;50.010;20.020;2023-04-01T19:36:49;97494.53;;;8.81;100.00
28008;BME280;15333;50.010;20.020;2023-04-01T19:49:39;97510.91;;;8.67;100.00
28008;BME280;15333;50.010;20.020;2023-04-01T19:52:45;97515.44;;;8.76;100.00
28008;BME280;15333;50.010;20.020;2023-04-01T19:56:39;97518.41;;;8.73;100.00
28008;BME280;15333;50.010;20.020;2023-04-01T20:06:31;97532.53;;;8.64;100.00
28008;BME280;15333;50.010;20.020;2023-04-01T20:10:07;97532.53;;;8.64;100.00
28008;BME280;15333;50.010;20.020;2023-04-01T20:14:01;97537.59;;;8.67;100.00
28008;BME280;15333;50.010;20.020;2023-04-01T20:20:38;97541.34;;;8.55;100.00
28008;BME280;15333;50.010;20.020;2023-04-01T20:23:49;97539.09;;;8.60;100.00
28008;BME280;15333;50.010;20.020;2023-04-01T20:27:14;97545.28;;;8.51;100.00
28008;BME280;15333;50.010;20.020;2023-04-01T20:40:49;97562.31;;;8.39;100.00
28008;BME280;15333;50.010;20.020;2023-04-01T20:44:10;97560.91;;;8.35;100.00
28008;BME280;15333;50.010;20.020;2023-04-01T20:47:27;97557.25;;;8.36;100.00
28008;BME280;15333;50.010;20.020;2023-04-01T20:50:51;97559.19;;;8.34;100.00
28008;BME280;15333;50.010;20.020;2023-04-01T20:57:22;97560.66;;;8.38;100.00
28008;BME280;15333;50.010;20.020;2023-04-01T21:00:53;97568.91;;;8.35;100.00
28008;BME280;15333;50.010;20.020;2023-04-01T21:04:21;97566.22;;;8.35;100.00
28008;BME280;15333;50.010;20.020;2023-04-01T21:08:02;97566.34;;;8.33;100.00
28008;BME280;15333;50.010;20.020;2023-04-01T21:11:18;97568.78;;;8.36;100.00
28008;BME280;15333;50.010;20.020;2023-04-01T21:21:19;97588.06;;;8.29;100.00
28008;BME280;15333;50.010;20.020;2023-04-01T21:24:36;97589.50;;;8.33;100.00
28008;BME280;15333;50.010;20.020;2023-04-01T21:27:46;97594.81;;;8.33;100.00
28008;BME280;15333;50.010;20.020;2023-04-01T21:31:03;97602.34;;;8.27;100.00
28008;BME280;15333;50.010;20.020;2023-04-01T21:44:04;97604.03;;;8.29;100.00
28008;BME280;15333;50.010;20.020;2023-04-01T21:57:45;97608.22;;;8.21;100.00
28008;BME280;15333;50.010;20.020;2023-04-01T22:14:40;97616.44;;;8.18;100.00
28008;BME280;15333;50.010;20.020;2023-04-01T22:17:56;97616.44;;;8.18;100.00
28008;BME280;15333;50.010;20.020;2023-04-01T22:21:12;97629.94;;;8.17;100.00
28008;BME280;15333;50.010;20.020;2023-04-01T22:24:23;97631.03;;;8.14;100.00
28008;BME280;15333;50.010;20.020;2023-04-01T22:30:41;97628.69;;;8.21;100.00
28008;BME280;15333;50.010;20.020;2023-04-01T22:36:56;97629.19;;;8.15;100.00
28008;BME280;15333;50.010;20.020;2023-04-01T22:40:57;97632.59;;;8.17;100.00
28008;BME280;15333;50.010;20.020;2023-04-01T22:43:39;97635.81;;;8.20;100.00
28008;BME280;15333;50.010;20.020;2023-04-01T22:50:21;97635.38;;;8.15;100.00
28008;BME280;15333;50.010;20.020;2023-04-01T22:57:31;97646.25;;;8.23;100.00
28008;BME280;15333;50.010;20.020;2023-04-01T23:00:48;97642.97;;;8.20;100.00
28008;BME280;15333;50.010;20.020;2023-04-01T23:03:51;97646.94;;;8.25;100.00
28008;BME280;15333;50.010;20.020;2023-04-01T23:06:56;97646.50;;;8.20;100.00
28008;BME280;15333;50.010;20.020;2023-04-01T23:10:00;97649.16;;;8.20;100.00
28008;BME280;15333;50.010;20.020;2023-04-01T23:13:04;97650.31;;;8.27;100.00
28008;BME280;15333;50.010;20.020;2023-04-01T23:16:08;97654.72;;;8.17;100.00
28008;BME280;15333;50.010;20.020;2023-04-01T23:19:26;97653.13;;;8.26;100.00
28008;BME280;15333;50.010;20.020;2023-04-01T23:22:35;97663.78;;;8.26;100.00
28008;BME280;15333;50.010;20.020;2023-04-01T23:26:02;97658.84;;;8.21;100.00
28008;BME280;15333;50.010;20.020;2023-04-01T23:29:14;97663.44;;;8.31;100.00
28008;BME280;15333;50.010;20.020;2023-04-01T23:32:17;97663.19;;;8.22;100.00
28008;BME280;15333;50.010;20.020;2023-04-01T23:35:18;97664.38;;;8.30;100.00
28008;BME280;15333;50.010;20.020;2023-04-01T23:38:21;97665.22;;;8.30;100.00
28008;BME280;15333;50.010;20.020;2023-04-01T23:41:25;97671.91;;;8.24;100.00
28008;BME280;15333;50.010;20.020;2023-04-01T23:44:28;97676.78;;;8.31;100.00
28008;BME280;15333;50.010;20.020;2023-04-01T23:47:33;97672.28;;;8.31;100.00
28008;BME280;15333;50.010;20.020;2023-04-01T23:50:34;97666.09;;;8.31;100.00
28008;BME280;15333;50.010;20.020;2023-04-01T23:53:43;97674.84;;;8.21;100.00
28008;BME280;15333;50.010;20.020;2023-04-01T23:56:51;97676.97;;;8.27;100.00
